createdAt,value
2022-08-24T00:01:57.352Z,31.62
2022-08-24T00:04:28.270Z,31.38
2022-08-24T00:06:57.800Z,31.49
2022-08-24T00:09:26.314Z,31.42
2022-08-24T00:11:54.536Z,31.36
2022-08-24T00:14:22.895Z,31.44
2022-08-24T00:16:51.153Z,31.51
2022-08-24T00:19:19.337Z,31.34
2022-08-24T00:21:49.416Z,30.61
2022-08-24T00:24:17.644Z,31.20
2022-08-24T00:26:46.539Z,31.18
2022-08-24T00:29:15.433Z,31.54
2022-08-24T00:31:43.861Z,31.36
2022-08-24T00:34:14.034Z,31.47
2022-08-24T00:36:43.353Z,30.92
2022-08-24T00:39:13.267Z,30.72
2022-08-24T00:41:43.544Z,31.11
2022-08-24T00:44:13.881Z,30.97
2022-08-24T00:46:46.021Z,30.71
2022-08-24T00:49:20.590Z,30.36
2022-08-24T00:51:56.037Z,30.29
2022-08-24T00:54:28.457Z,30.59
2022-08-24T00:56:59.228Z,30.49
2022-08-24T00:59:29.500Z,30.78
2022-08-24T01:02:09.033Z,30.70
2022-08-24T01:04:49.091Z,30.62
2022-08-24T01:07:17.703Z,31.25
2022-08-24T01:09:47.884Z,31.17
2022-08-24T01:12:16.841Z,31.63
2022-08-24T01:14:45.298Z,31.33
2022-08-24T01:17:34.037Z,31.49
2022-08-24T01:20:08.275Z,31.32
2022-08-24T01:22:46.582Z,30.74
2022-08-24T01:25:16.458Z,31.14
2022-08-24T01:27:45.076Z,31.77
2022-08-24T01:30:17.381Z,31.41
2022-08-24T01:32:54.946Z,30.73
2022-08-24T01:35:23.563Z,31.68
2022-08-24T01:37:52.545Z,31.49
2022-08-24T01:40:23.003Z,31.45
2022-08-24T01:42:52.892Z,31.52
2022-08-24T01:45:21.879Z,31.73
2022-08-24T01:47:50.023Z,31.95
2022-08-24T01:50:18.126Z,31.78
2022-08-24T01:53:04.454Z,31.99
2022-08-24T01:55:35.761Z,31.50
2022-08-24T01:58:05.371Z,31.82
2022-08-24T02:00:34.703Z,31.74
2022-08-24T02:03:03.990Z,31.96
2022-08-24T02:05:32.580Z,31.85
2022-08-24T02:08:00.876Z,32.29
2022-08-24T02:10:29.356Z,31.96
2022-08-24T02:12:59.792Z,31.69
2022-08-24T02:15:29.680Z,31.75
2022-08-24T02:17:58.720Z,32.04
2022-08-24T02:20:27.543Z,32.18
2022-08-24T02:22:56.147Z,32.22
2022-08-24T02:25:25.289Z,32.04
2022-08-24T02:27:53.818Z,32.13
2022-08-24T02:30:23.617Z,31.72
2022-08-24T02:32:51.713Z,31.98
2022-08-24T02:35:20.136Z,32.18
2022-08-24T02:37:48.453Z,31.86
2022-08-24T02:40:16.834Z,32.08
2022-08-24T02:42:45.574Z,32.29
2022-08-24T02:45:13.901Z,31.96
2022-08-24T02:47:44.024Z,31.31
2022-08-24T02:50:15.529Z,31.59
2022-08-24T02:52:44.069Z,31.73
2022-08-24T02:55:14.710Z,31.53
2022-08-24T02:57:43.138Z,31.77
2022-08-24T03:00:14.932Z,31.38
2022-08-24T03:02:45.759Z,31.69
2022-08-24T03:05:14.493Z,31.94
2022-08-24T03:07:43.091Z,31.64
2022-08-24T03:10:11.803Z,31.86
2022-08-24T03:12:40.483Z,31.42
2022-08-24T03:15:11.523Z,31.24
2022-08-24T03:17:41.089Z,31.45
2022-08-24T03:20:14.383Z,29.65
2022-08-24T03:22:42.967Z,30.02
2022-08-24T03:25:12.382Z,31.38
2022-08-24T03:27:40.931Z,31.67
2022-08-24T03:30:12.970Z,31.42
2022-08-24T03:32:41.278Z,31.67
2022-08-24T03:35:10.656Z,31.74
2022-08-24T03:37:40.453Z,31.55
2022-08-24T03:40:22.489Z,31.45
2022-08-24T03:42:53.622Z,31.70
2022-08-24T03:45:23.013Z,31.68
2022-08-24T03:47:51.191Z,31.79
2022-08-24T03:50:20.473Z,31.62
2022-08-24T03:52:50.324Z,31.25
2022-08-24T03:55:19.191Z,31.52
2022-08-24T03:57:47.483Z,31.79
2022-08-24T04:00:16.160Z,31.64
2022-08-24T04:02:45.214Z,31.82
2022-08-24T04:05:14.465Z,31.84
2022-08-24T04:07:42.860Z,31.97
2022-08-24T04:10:14.626Z,31.42
2022-08-24T04:12:43.100Z,32.07
2022-08-24T04:15:12.480Z,31.67
2022-08-24T04:17:40.602Z,31.95
2022-08-24T04:20:10.000Z,31.79
2022-08-24T04:22:38.218Z,31.88
2022-08-24T04:25:09.274Z,31.66
2022-08-24T04:27:41.563Z,31.41
2022-08-24T04:30:14.151Z,31.25
2022-08-24T04:32:43.219Z,31.50
2022-08-24T04:35:12.045Z,31.36
2022-08-24T04:37:40.242Z,31.47
2022-08-24T04:40:09.902Z,31.40
2022-08-24T04:42:40.066Z,31.66
2022-08-24T04:45:10.628Z,31.54
2022-08-24T04:47:38.831Z,31.42
2022-08-24T04:50:08.312Z,31.42
2022-08-24T04:52:37.117Z,31.40
2022-08-24T04:55:07.616Z,31.38
2022-08-24T04:57:36.214Z,31.04
2022-08-24T05:00:09.440Z,30.51
2022-08-24T05:02:44.766Z,31.10
2022-08-24T05:05:13.550Z,31.12
2022-08-24T05:07:41.978Z,31.03
2022-08-24T05:10:11.678Z,31.00
2022-08-24T05:12:40.289Z,31.09
2022-08-24T05:15:10.964Z,30.24
2022-08-24T05:17:41.129Z,30.66
2022-08-24T05:20:12.047Z,30.57
2022-08-24T05:22:40.435Z,30.55
2022-08-24T05:25:09.448Z,30.68
2022-08-24T05:27:38.030Z,30.90
2022-08-24T05:30:07.568Z,30.57
2022-08-24T05:32:37.440Z,30.09
2022-08-24T05:35:09.511Z,30.21
2022-08-24T05:37:38.595Z,30.49
2022-08-24T05:40:10.347Z,29.96
2022-08-24T05:42:39.104Z,30.62
2022-08-24T05:45:08.860Z,30.13
2022-08-24T05:47:38.615Z,29.90
2022-08-24T05:50:08.243Z,30.07
2022-08-24T05:52:36.730Z,30.24
2022-08-24T05:55:05.815Z,29.89
2022-08-24T05:57:36.011Z,29.95
2022-08-24T06:00:06.690Z,29.55
2022-08-24T06:02:35.248Z,29.89
2022-08-24T06:05:05.164Z,29.55
2022-08-24T06:07:34.446Z,30.00
2022-08-24T06:10:20.196Z,29.92
2022-08-24T06:12:51.060Z,30.07
2022-08-24T06:15:19.200Z,29.93
2022-08-24T06:17:47.383Z,29.47
2022-08-24T06:20:17.468Z,29.05
2022-08-24T06:22:45.503Z,29.62
2022-08-24T06:25:31.442Z,29.19
2022-08-24T06:28:00.631Z,29.63
2022-08-24T06:30:30.615Z,29.29
2022-08-24T06:33:00.744Z,29.31
2022-08-24T06:35:30.577Z,29.00
2022-08-24T06:37:59.067Z,29.03
2022-08-24T06:40:28.677Z,28.89
2022-08-24T06:42:57.369Z,29.21
2022-08-24T06:45:25.657Z,29.05
2022-08-24T06:47:53.941Z,28.15
2022-08-24T06:50:24.679Z,27.88
2022-08-24T06:52:54.452Z,27.75
2022-08-24T06:55:22.576Z,27.97
2022-08-24T06:57:52.654Z,27.66
2022-08-24T07:00:21.950Z,27.91
2022-08-24T07:02:50.233Z,27.56
2022-08-24T07:05:18.790Z,27.59
2022-08-24T07:07:47.093Z,27.83
2022-08-24T07:10:16.767Z,27.01
2022-08-24T07:12:50.842Z,27.69
2022-08-24T07:15:19.537Z,27.30
2022-08-24T07:17:47.739Z,27.10
2022-08-24T07:20:17.613Z,27.00
2022-08-24T07:22:46.734Z,26.76
2022-08-24T07:25:16.544Z,26.29
2022-08-24T07:27:44.871Z,26.60
2022-08-24T07:30:28.202Z,26.29
2022-08-24T07:32:57.912Z,26.08
2022-08-24T07:35:26.827Z,26.08
2022-08-24T07:37:55.155Z,25.99
2022-08-24T07:40:25.514Z,25.64
2022-08-24T07:42:55.142Z,25.98
2022-08-24T07:45:24.000Z,25.83
2022-08-24T07:47:55.435Z,25.79
2022-08-24T07:50:24.277Z,25.98
2022-08-24T07:52:52.853Z,25.76
2022-08-24T07:55:21.731Z,25.71
2022-08-24T07:57:51.823Z,25.24
2022-08-24T08:00:21.346Z,24.95
2022-08-24T08:02:50.783Z,24.84
2022-08-24T08:05:24.578Z,24.42
2022-08-24T08:07:53.169Z,25.11
2022-08-24T08:10:23.429Z,24.82
2022-08-24T08:12:53.085Z,23.75
2022-08-24T08:15:21.491Z,24.16
2022-08-24T08:17:55.780Z,23.80
2022-08-24T08:20:24.874Z,23.52
2022-08-24T08:23:10.428Z,23.46
2022-08-24T08:25:38.931Z,23.71
2022-08-24T08:28:25.199Z,24.22
2022-08-24T08:30:54.605Z,24.25
2022-08-24T08:33:23.158Z,24.39
2022-08-24T08:35:52.499Z,23.93
2022-08-24T08:38:21.445Z,24.18
2022-08-24T08:40:59.637Z,23.24
2022-08-24T08:43:42.051Z,22.88
2022-08-24T08:46:23.374Z,22.66
2022-08-24T08:49:25.196Z,21.74
2022-08-24T08:52:08.752Z,23.11
2022-08-24T08:54:46.067Z,23.51
2022-08-24T08:57:27.370Z,23.54
2022-08-24T09:00:10.648Z,23.39
2022-08-24T09:03:18.646Z,23.39
2022-08-24T09:05:57.617Z,23.92
2022-08-24T09:08:37.013Z,24.47
2022-08-24T09:11:09.536Z,24.26
2022-08-24T09:13:56.220Z,24.03
2022-08-24T09:16:33.336Z,23.99
2022-08-24T09:19:16.313Z,23.79
2022-08-24T09:21:54.473Z,23.43
2022-08-24T09:24:36.679Z,22.65
2022-08-24T09:27:14.397Z,21.97
2022-08-24T09:29:51.715Z,21.28
2022-08-24T09:32:55.987Z,19.77
2022-08-24T09:35:34.012Z,20.26
2022-08-24T09:38:09.368Z,20.05
2022-08-24T09:40:42.829Z,20.51
2022-08-24T09:43:35.156Z,19.92
2022-08-24T09:46:22.351Z,20.32
2022-08-24T09:49:20.711Z,20.35
2022-08-24T09:52:03.014Z,20.65
2022-08-24T09:55:15.100Z,20.52
2022-08-24T09:58:00.603Z,20.57
2022-08-24T10:00:34.536Z,20.45
2022-08-24T10:03:15.608Z,19.84
2022-08-24T10:06:08.960Z,19.02
2022-08-24T10:08:54.713Z,19.47
2022-08-24T10:11:27.290Z,19.48
2022-08-24T10:14:03.846Z,19.21
2022-08-24T10:16:41.322Z,18.48
2022-08-24T10:19:20.426Z,17.83
2022-08-24T10:21:57.294Z,17.75
2022-08-24T10:24:51.837Z,17.79
2022-08-24T10:27:28.103Z,18.14
2022-08-24T10:30:25.903Z,15.75
2022-08-24T10:33:10.402Z,14.37
2022-08-24T10:35:46.519Z,15.33
2022-08-24T10:39:02.756Z,14.95
2022-08-24T10:42:10.756Z,15.42
2022-08-24T10:44:51.080Z,14.49
2022-08-24T10:47:27.102Z,14.92
2022-08-24T10:50:22.131Z,14.68
2022-08-24T10:53:23.035Z,14.87
2022-08-24T10:56:01.742Z,15.12
2022-08-24T10:58:43.869Z,15.78
2022-08-24T11:01:19.097Z,16.59
2022-08-24T11:03:53.632Z,16.80
2022-08-24T11:06:24.446Z,17.11
2022-08-24T11:08:55.252Z,17.76
2022-08-24T11:11:28.959Z,17.55
2022-08-24T11:14:00.390Z,17.65
2022-08-24T11:16:32.587Z,17.86
2022-08-24T11:19:02.467Z,18.49
2022-08-24T11:21:40.959Z,18.73
2022-08-24T11:24:13.167Z,19.05
2022-08-24T11:26:55.835Z,18.86
2022-08-24T11:29:24.576Z,18.16
2022-08-24T11:31:53.936Z,15.78
2022-08-24T11:34:33.307Z,14.20
2022-08-24T11:37:02.390Z,14.07
2022-08-24T11:39:34.688Z,13.35
2022-08-24T11:42:14.885Z,14.05
2022-08-24T11:44:49.976Z,14.89
2022-08-24T11:47:46.097Z,14.88
2022-08-24T11:50:26.093Z,14.89
2022-08-24T11:53:12.512Z,14.98
2022-08-24T11:55:51.957Z,15.64
2022-08-24T11:58:37.305Z,15.53
2022-08-24T12:01:10.101Z,15.85
2022-08-24T12:03:48.331Z,15.71
2022-08-24T12:06:32.449Z,15.43
2022-08-24T12:09:06.029Z,15.81
2022-08-24T12:11:40.952Z,15.85
2022-08-24T12:14:17.337Z,16.03
2022-08-24T12:16:51.339Z,16.28
2022-08-24T12:19:23.670Z,16.24
2022-08-24T12:21:58.063Z,16.45
2022-08-24T12:24:31.841Z,16.59
2022-08-24T12:27:04.125Z,17.38
2022-08-24T12:29:38.694Z,16.91
2022-08-24T12:32:12.005Z,17.46
2022-08-24T12:34:49.981Z,16.87
2022-08-24T12:37:23.389Z,16.75
2022-08-24T12:39:57.155Z,17.74
2022-08-24T12:42:34.682Z,18.22
2022-08-24T12:45:08.371Z,18.48
2022-08-24T12:47:40.901Z,18.55
2022-08-24T12:50:12.989Z,18.61
2022-08-24T12:53:24.079Z,17.79
2022-08-24T12:56:18.318Z,17.87
2022-08-24T12:59:09.156Z,17.61
2022-08-24T13:01:43.512Z,18.67
2022-08-24T13:04:19.811Z,18.65
2022-08-24T13:06:56.343Z,19.06
2022-08-24T13:09:33.235Z,18.98
2022-08-24T13:12:41.874Z,18.86
2022-08-24T13:15:43.605Z,18.86
2022-08-24T13:18:51.838Z,18.62
2022-08-24T13:21:48.927Z,18.28
2022-08-24T13:24:44.671Z,18.29
2022-08-24T13:27:49.042Z,18.89
2022-08-24T13:30:25.295Z,19.30
2022-08-24T13:33:01.145Z,19.07
2022-08-24T13:35:53.929Z,19.01
2022-08-24T13:39:04.031Z,18.63
2022-08-24T13:41:55.233Z,18.80
2022-08-24T13:44:28.839Z,18.40
2022-08-24T13:47:07.840Z,19.41
2022-08-24T13:49:47.233Z,19.67
2022-08-24T13:52:23.065Z,19.85
2022-08-24T13:55:07.079Z,19.62
2022-08-24T13:57:42.947Z,19.94
2022-08-24T14:00:30.402Z,20.53
2022-08-24T14:03:06.869Z,20.71
2022-08-24T14:05:37.165Z,21.02
2022-08-24T14:08:13.403Z,20.57
2022-08-24T14:10:53.753Z,20.61
2022-08-24T14:13:29.342Z,20.06
2022-08-24T14:16:15.185Z,20.72
2022-08-24T14:18:57.512Z,20.67
2022-08-24T14:21:37.280Z,20.92
2022-08-24T14:24:10.088Z,20.84
2022-08-24T14:27:08.326Z,20.66
2022-08-24T14:29:43.338Z,21.23
2022-08-24T14:32:29.590Z,21.01
2022-08-24T14:35:21.031Z,20.73
2022-08-24T14:38:05.784Z,20.95
2022-08-24T14:40:42.476Z,20.19
2022-08-24T14:43:30.629Z,20.80
2022-08-24T14:46:08.936Z,20.85
2022-08-24T14:48:43.711Z,20.59
2022-08-24T14:51:17.559Z,20.56
2022-08-24T14:53:52.950Z,20.82
2022-08-24T14:56:29.964Z,21.19
2022-08-24T14:59:05.116Z,21.13
2022-08-24T15:01:42.071Z,21.32
2022-08-24T15:04:30.707Z,21.68
2022-08-24T15:07:28.474Z,21.65
2022-08-24T15:09:58.614Z,22.44
2022-08-24T15:12:39.601Z,21.61
2022-08-24T15:15:12.796Z,21.64
2022-08-24T15:17:53.194Z,21.35
2022-08-24T15:20:23.057Z,21.72
2022-08-24T15:22:56.454Z,21.32
2022-08-24T15:25:34.089Z,21.01
2022-08-24T15:28:11.398Z,20.85
2022-08-24T15:30:41.960Z,21.20
2022-08-24T15:33:15.967Z,20.13
2022-08-24T15:35:48.944Z,21.17
2022-08-24T15:38:19.693Z,20.97
2022-08-24T15:40:53.601Z,21.21
2022-08-24T15:43:22.656Z,21.55
2022-08-24T15:45:52.393Z,21.07
2022-08-24T15:48:25.976Z,20.82
2022-08-24T15:50:55.951Z,20.79
2022-08-24T15:53:32.922Z,20.25
2022-08-24T15:56:01.932Z,20.93
2022-08-24T15:58:35.251Z,20.48
2022-08-24T16:01:40.938Z,20.60
2022-08-24T16:04:12.788Z,21.22
2022-08-24T16:06:45.220Z,21.42
2022-08-24T16:09:33.891Z,21.31
2022-08-24T16:12:04.837Z,21.98
2022-08-24T16:14:35.771Z,21.95
2022-08-24T16:17:21.764Z,21.13
2022-08-24T16:19:53.743Z,21.76
2022-08-24T16:22:34.498Z,21.25
2022-08-24T16:25:14.963Z,21.37
2022-08-24T16:28:07.855Z,21.10
2022-08-24T16:30:45.430Z,21.45
2022-08-24T16:33:43.298Z,21.47
2022-08-24T16:36:16.691Z,22.30
2022-08-24T16:38:49.013Z,22.57
2022-08-24T16:41:19.069Z,22.84
2022-08-24T16:43:47.566Z,23.05
2022-08-24T16:46:21.218Z,22.46
2022-08-24T16:48:49.861Z,23.28
2022-08-24T16:51:19.750Z,23.12
2022-08-24T16:53:48.066Z,23.98
2022-08-24T16:56:17.031Z,23.65
2022-08-24T16:58:47.562Z,23.44
2022-08-24T17:01:16.271Z,23.62
2022-08-24T17:03:44.647Z,23.62
2022-08-24T17:06:13.422Z,24.00
2022-08-24T17:08:42.990Z,23.45
2022-08-24T17:11:11.579Z,23.78
2022-08-24T17:13:49.280Z,23.78
2022-08-24T17:16:19.328Z,23.83
2022-08-24T17:18:47.514Z,24.03
2022-08-24T17:21:16.103Z,23.97
2022-08-24T17:23:46.095Z,23.52
2022-08-24T17:26:20.553Z,23.99
2022-08-24T17:28:52.694Z,23.99
2022-08-24T17:31:21.120Z,23.86
2022-08-24T17:33:49.308Z,24.12
2022-08-24T17:36:20.157Z,24.11
2022-08-24T17:38:56.385Z,23.93
2022-08-24T17:41:25.992Z,24.52
2022-08-24T17:43:54.726Z,24.96
2022-08-24T17:46:24.234Z,24.83
2022-08-24T17:48:52.865Z,24.97
2022-08-24T17:51:21.330Z,25.34
2022-08-24T17:53:49.891Z,24.83
2022-08-24T17:56:20.663Z,25.21
2022-08-24T17:59:06.804Z,25.96
2022-08-24T18:01:35.249Z,25.22
2022-08-24T18:04:04.005Z,25.44
2022-08-24T18:06:32.795Z,24.90
2022-08-24T18:09:02.878Z,24.41
2022-08-24T18:11:32.453Z,24.30
2022-08-24T18:14:01.692Z,24.88
2022-08-24T18:16:30.428Z,24.63
2022-08-24T18:18:58.754Z,24.75
2022-08-24T18:21:27.081Z,24.94
2022-08-24T18:23:56.129Z,25.19
2022-08-24T18:26:28.481Z,24.31
2022-08-24T18:29:02.527Z,24.54
2022-08-24T18:31:31.945Z,25.37
2022-08-24T18:34:00.322Z,25.59
2022-08-24T18:36:29.012Z,25.69
2022-08-24T18:38:57.391Z,25.61
2022-08-24T18:41:27.606Z,25.44
2022-08-24T18:43:55.879Z,25.52
2022-08-24T18:46:26.152Z,25.48
2022-08-24T18:48:54.534Z,25.88
2022-08-24T18:51:24.183Z,25.37
2022-08-24T18:54:01.207Z,25.36
2022-08-24T18:56:29.428Z,25.55
2022-08-24T18:58:58.323Z,25.90
2022-08-24T19:01:28.880Z,25.98
2022-08-24T19:03:57.639Z,25.78
2022-08-24T19:06:26.248Z,26.16
2022-08-24T19:08:54.467Z,26.35
2022-08-24T19:11:24.940Z,25.89
2022-08-24T19:13:53.389Z,26.09
2022-08-24T19:16:21.471Z,25.71
2022-08-24T19:18:52.291Z,25.46
2022-08-24T19:21:20.732Z,25.89
2022-08-24T19:23:49.220Z,25.99
2022-08-24T19:26:18.608Z,26.37
2022-08-24T19:28:46.899Z,26.14
2022-08-24T19:31:23.563Z,25.73
2022-08-24T19:33:53.978Z,25.80
2022-08-24T19:36:22.507Z,26.19
2022-08-24T19:38:50.844Z,26.37
2022-08-24T19:41:21.445Z,26.80
2022-08-24T19:44:10.543Z,26.17
2022-08-24T19:46:43.148Z,25.91
2022-08-24T19:49:13.014Z,26.08
2022-08-24T19:51:41.136Z,26.19
2022-08-24T19:54:09.619Z,26.03
2022-08-24T19:56:37.826Z,25.58
2022-08-24T19:59:09.193Z,24.93
2022-08-24T20:01:38.181Z,25.95
2022-08-24T20:04:07.676Z,25.40
2022-08-24T20:06:39.169Z,25.19
2022-08-24T20:09:08.509Z,25.58
2022-08-24T20:11:39.062Z,25.84
2022-08-24T20:14:07.299Z,25.65
2022-08-24T20:16:38.351Z,25.56
2022-08-24T20:19:07.277Z,25.86
2022-08-24T20:21:35.912Z,26.41
2022-08-24T20:24:06.488Z,25.93
2022-08-24T20:26:39.326Z,26.46
2022-08-24T20:29:07.856Z,28.25
2022-08-24T20:31:36.610Z,28.78
2022-08-24T20:34:04.987Z,28.52
2022-08-24T20:36:36.587Z,28.12
2022-08-24T20:39:08.491Z,27.56
2022-08-24T20:41:37.346Z,28.02
2022-08-24T20:44:06.036Z,27.83
2022-08-24T20:46:34.186Z,27.89
2022-08-24T20:49:03.158Z,27.97
2022-08-24T20:51:31.370Z,27.80
2022-08-24T20:54:02.137Z,28.13
2022-08-24T20:56:33.388Z,27.52
2022-08-24T20:59:02.750Z,27.93
2022-08-24T21:01:31.097Z,28.36
2022-08-24T21:04:04.723Z,28.64
2022-08-24T21:06:33.906Z,29.20
2022-08-24T21:09:02.630Z,29.52
2022-08-24T21:11:33.097Z,29.15
2022-08-24T21:14:01.531Z,30.08
2022-08-24T21:16:30.173Z,30.18
2022-08-24T21:18:58.455Z,30.29
2022-08-24T21:21:28.209Z,30.33
2022-08-24T21:23:56.464Z,30.41
2022-08-24T21:26:26.640Z,29.58
2022-08-24T21:28:58.088Z,29.51
2022-08-24T21:31:26.873Z,29.55
2022-08-24T21:34:13.106Z,29.16
2022-08-24T21:36:41.986Z,29.70
2022-08-24T21:39:11.107Z,30.17
2022-08-24T21:41:39.658Z,29.91
2022-08-24T21:44:09.322Z,29.76
2022-08-24T21:46:39.416Z,29.56
2022-08-24T21:49:11.823Z,30.34
2022-08-24T21:51:41.246Z,30.18
2022-08-24T21:54:09.585Z,30.09
2022-08-24T21:56:37.784Z,30.15
2022-08-24T21:59:06.999Z,30.46
2022-08-24T22:01:38.781Z,30.49
2022-08-24T22:04:08.183Z,30.91
2022-08-24T22:06:36.586Z,30.94
2022-08-24T22:09:05.225Z,31.07
2022-08-24T22:11:33.622Z,30.76
2022-08-24T22:14:02.975Z,30.81
2022-08-24T22:16:31.323Z,31.18
2022-08-24T22:19:04.185Z,31.17
2022-08-24T22:21:36.078Z,31.66
2022-08-24T22:24:05.155Z,31.71
2022-08-24T22:26:33.799Z,31.58
2022-08-24T22:29:02.232Z,31.71
2022-08-24T22:31:33.540Z,31.22
2022-08-24T22:34:05.538Z,31.03
2022-08-24T22:36:34.153Z,31.35
2022-08-24T22:39:02.466Z,31.53
2022-08-24T22:41:32.492Z,31.33
2022-08-24T22:44:18.400Z,31.50
2022-08-24T22:46:47.031Z,31.57
2022-08-24T22:49:17.366Z,31.14
2022-08-24T22:51:46.360Z,31.38
2022-08-24T22:54:14.714Z,31.41
2022-08-24T22:56:45.178Z,31.03
2022-08-24T22:59:16.883Z,30.64
2022-08-24T23:01:46.988Z,31.18
2022-08-24T23:04:18.715Z,30.70
2022-08-24T23:06:47.445Z,31.40
2022-08-24T23:09:15.851Z,31.37
2022-08-24T23:11:45.256Z,31.17
2022-08-24T23:14:14.912Z,31.25
2022-08-24T23:16:47.829Z,31.30
2022-08-24T23:19:36.521Z,31.48
2022-08-24T23:22:05.306Z,31.82
2022-08-24T23:24:34.132Z,31.89
2022-08-24T23:27:03.277Z,31.85
2022-08-24T23:29:31.695Z,31.92
2022-08-24T23:32:00.341Z,32.08
2022-08-24T23:34:30.394Z,31.60
2022-08-24T23:36:58.981Z,31.76
2022-08-24T23:39:27.996Z,31.51
2022-08-24T23:41:56.354Z,31.49
2022-08-24T23:44:27.749Z,31.11
2022-08-24T23:46:56.577Z,31.43
2022-08-24T23:49:26.067Z,31.30
2022-08-24T23:51:56.313Z,31.00
2022-08-24T23:54:25.073Z,31.53
2022-08-24T23:56:54.269Z,31.64
2022-08-24T23:59:25.013Z,31.59
